Main page
METAR-TAF:

METAR-TAF

Airports :

Gorna Oryahovitsa Airport

Veliko Tarnovo, Bulgaria

latitude: 43-09N, longitude: 025-36E, elevation: 87 m

Current weather observation

The report was made 32 minutes ago, at 06:30 UTC
Wind 8 kt from the East
Temperature 24°C
Humidity 54%
Pressure 1017 hPa
Visibility 10 km or more

METAR: LBGO 110630Z AUTO 09008KT 9999 NCD 24/14 Q1017 NOSIG

Time: 10:02 (07:02 UTC)

Forecast

The report was made 2 hours and 2 minutes ago, at 05:00 UTC
Forecast valid from 11 at 06 UTC to 12 at 06 UTC
Wind 4 kt from variable directions
Visibility 10 km or more
no clouds below 1500 m and no cumulonimbus
Becoming
from 11 at 08 UTC to 11 at 10 UTC
Wind 10 kt from the East/Southeast
Becoming
from 11 at 18 UTC to 11 at 20 UTC
Wind 4 kt from variable directions

TAF: LBGO 110500Z 1106/1206 VRB04KT CAVOK BECMG 1108/1110 11010KT BECMG 1118/1120 VRB04KT

Weather observations and forecasts of more than 4000 airports (METAR and TAF reports).

The available stations are represented by yellow and red dots on the map.

Hover mouse over dot to see the name of the station.

Then click to see weather observations and forecasts.

To change the map : click on the green buttons with a black cross to zoom in, on the green button with a dash to zoom out, or on the green arrows for adjacent maps.


METAR-TAF: